::: dream skyward :::
rwy22.exblog.jp
Top
JL908(JA8084) LDA22 approach & landing
2010年 12月 25日 |
JL908 OKA - HND ETA 15:55。

METAR of RJTT/HND
RJTT 250617Z 22020G31KT 9999 FEW030 09/M06 Q0998 RMK 1CU030 A2950

今日は、こんな日。
時間帯と風。 限られた日々の限られた姿は、正攻法でしっかり全景を綺麗に収めておきたい。



JALらしく、彼女は今日もきっちり時間通りにやってきました。
e0215320_19515095.jpg

中央防波堤上空でターンを終え・・
e0215320_19164671.jpg
ほぼ真向かいから30kt近い強風でも安定した姿勢でアプローチしてきました。
e0215320_19191878.jpg
この間は単焦点で大失敗だったので今日はズーム。
焦点距離を180mm程度にして静かにシャッターを切っていきます。
e0215320_19213647.jpg
障害物の少ない視界の開けたポイントで綺麗なタッチダウン。
e0215320_19234299.jpg
勿体無くて流し撮りなんて歩留まりの悪い撮影は彼女に対してはとてもできません。
e0215320_19515494.jpg
e0215320_19261717.jpg
α550のHi-Driveモードで連写すると途中でClass10のSDHCでもバッファが溢れてしまいレリーズが待たされます。
でもちょうど潅木とか鉄柱とかの障害物の多い区間だったのが怪我の功名。
e0215320_1928414.jpg
今日の仕事を綺麗なランディングで無事に終えたJA8084。


それにしても風が冷たく強い日でした。


最後にジャンボに対しては恐ろしくてできなかった流し撮りを少しして撤収。
e0215320_19305835.jpg
e0215320_1931284.jpg
この738のブレっぷりを見るにつけ、やっぱりジャンボは流さなくて正解(笑)


SONY DSLR-A550 + SIGMA APO DG 70-300mm F4-5.6
Development with SILKYPIX Developper Studio 4

[PR]
by blackqualis | 2010-12-25 19:34 | RJTT
<< 好きこそものの上手なれ。 PageTop 冬晴れの日のジャンボたち >>
XML | ATOM

個人情報保護
情報取得について
免責事項
Sky Plane Skin by Sun&Moon